Weather at Ann Arbor Municipal Airport

Public forecast

Using degrees Fahrenheit for public forecast. Weather courtesy of forecast.io.

Current aviation weather report (METAR) for Ann Arbor Municipal Airport

Retrieved 2020/09/21 15:53 UTC (32 minutes ago):

KARB 211553Z 19004KT 10SM CLR 18/06 A3048 RMK AO2 SLP322 T01830056

Closest aviation forecast (TAF) to Ann Arbor Municipal Airport

Closest forecast is Willow Run Airport, 9.6 nm (17.8 km) E. Retrieved 2020/09/21 12:22 UTC (4 hours ago):

TAF KYIP 211120Z 2112/2212 VRB03KT P6SM SKC FM211400 16009KT P6SM SKC FM220600 21003KT P6SM SKC